Time;durP1;ratioP1;P1;durP2;ratioP2;P2;SDS_P1;SDS_P2;PMS_P1;PMS_P2;Temp;Humidity;BMP_temperature;BMP_pressure;BME280_temperature;BME280_humidity;BME280_pressure;Samples;Min_cycle;Max_cycle;Signal;HPM_P1;HPM_P2
2022/09/04 00:01:04;;;;;;;220.93;19.00;;;24.40;44.00;;;;;;4884411;29;20474;-94
2022/09/04 00:03:41;;;;;;;55.77;9.40;;;24.40;44.40;;;;;;4884078;29;20469;-96
2022/09/04 00:06:15;;;;;;;18.00;3.80;;;24.40;44.80;;;;;;4904048;29;20542;-96
2022/09/04 00:09:07;;;;;;;7.03;2.73;;;24.40;44.30;;;;;;4896794;29;20431;-96
2022/09/04 00:11:44;;;;;;;3.30;2.23;;;24.40;44.00;;;;;;4902250;29;20476;-95
2022/09/04 00:14:18;;;;;;;2.80;1.63;;;24.40;44.10;;;;;;4889344;29;20463;-96
2022/09/04 00:16:53;;;;;;;2.03;1.80;;;24.40;44.10;;;;;;4896634;29;20502;-96
2022/09/04 00:19:27;;;;;;;2.40;2.20;;;24.40;44.00;;;;;;4886057;29;20458;-93
2022/09/04 00:21:59;;;;;;;1.73;1.63;;;24.30;44.10;;;;;;4898120;29;20478;-96
2022/09/04 00:24:32;;;;;;;2.07;1.97;;;24.40;44.20;;;;;;4884958;29;20459;-96
2022/09/04 00:27:08;;;;;;;2.00;1.80;;;24.30;44.00;;;;;;4904628;29;20461;-95
2022/09/04 00:29:48;;;;;;;2.60;1.90;;;24.40;44.10;;;;;;4900692;29;20454;-95
2022/09/04 00:32:24;;;;;;;1.93;1.70;;;24.40;44.00;;;;;;4890120;29;20450;-96
2022/09/04 00:35:07;;;;;;;2.30;2.10;;;24.40;44.00;;;;;;4894154;29;20465;-96
2022/09/04 00:37:41;;;;;;;2.30;1.70;;;24.40;44.00;;;;;;4901510;29;20491;-95
2022/09/04 00:40:20;;;;;;;1.90;1.80;;;24.30;43.90;;;;;;4886666;29;20466;-96
2022/09/04 00:43:25;;;;;;;2.33;1.40;;;24.30;43.90;;;;;;4895088;29;20443;-95
2022/09/04 00:46:12;;;;;;;1.70;1.57;;;24.30;44.00;;;;;;4906993;29;20482;-96
2022/09/04 00:49:07;;;;;;;2.50;1.80;;;24.30;44.00;;;;;;4902097;29;20541;-95
2022/09/04 00:51:46;;;;;;;2.43;2.17;;;24.30;45.20;;;;;;4893847;29;20477;-95
2022/09/04 00:54:44;;;;;;;2.00;1.80;;;24.30;44.00;;;;;;4889292;29;20495;-96
2022/09/04 00:58:01;;;;;;;1.70;1.60;;;24.30;44.00;;;;;;4872400;29;20468;-96
2022/09/04 01:00:29;;;;;;;1.70;1.60;;;24.30;44.00;;;;;;4876872;29;20514;-95
2022/09/04 01:03:17;;;;;;;2.07;1.97;;;24.30;44.00;;;;;;4879178;29;20453;-96
2022/09/04 01:06:11;;;;;;;2.00;1.90;;;24.30;43.90;;;;;;4869041;29;20474;-96
2022/09/04 01:08:58;;;;;;;2.00;1.90;;;24.30;43.90;;;;;;4899257;29;20488;-96
2022/09/04 01:11:37;;;;;;;2.10;2.00;;;24.30;43.90;;;;;;4874140;29;20558;-96
2022/09/04 01:14:12;;;;;;;1.83;1.73;;;24.30;44.00;;;;;;4905637;29;20438;-95
2022/09/04 01:16:47;;;;;;;2.00;1.90;;;24.30;43.90;;;;;;4901513;29;20477;-96
2022/09/04 01:19:30;;;;;;;1.80;1.70;;;24.20;43.80;;;;;;4869335;29;20453;-96
2022/09/04 01:22:16;;;;;;;1.90;1.80;;;24.20;43.80;;;;;;4881613;29;20481;-96
2022/09/04 01:25:12;;;;;;;1.73;1.63;;;24.30;43.90;;;;;;4895738;29;20458;-96
2022/09/04 01:27:50;;;;;;;3.00;1.63;;;24.30;43.90;;;;;;4887120;29;20979;-96
2022/09/04 01:30:20;;;;;;;1.70;1.60;;;24.30;43.90;;;;;;4880873;29;20473;-96
2022/09/04 01:33:01;;;;;;;1.50;1.40;;;24.30;43.90;;;;;;4884944;29;20442;-95
2022/09/04 01:35:34;;;;;;;1.60;1.50;;;24.20;43.80;;;;;;4896879;29;20477;-96
2022/09/04 01:38:11;;;;;;;1.73;1.20;;;24.20;43.70;;;;;;4889957;29;20473;-96
2022/09/04 01:40:46;;;;;;;2.07;1.97;;;24.20;43.70;;;;;;4905608;29;20537;-96
2022/09/04 01:43:19;;;;;;;2.60;1.57;;;24.20;43.70;;;;;;4889659;29;20513;-96
2022/09/04 01:46:13;;;;;;;1.77;1.67;;;24.20;43.80;;;;;;4896797;29;20497;-95
2022/09/04 01:48:49;;;;;;;1.77;1.67;;;24.20;43.70;;;;;;4891894;29;20446;-95
2022/09/04 01:51:26;;;;;;;1.70;1.60;;;24.20;43.80;;;;;;4882114;29;20484;-96
2022/09/04 01:54:08;;;;;;;1.80;1.70;;;24.20;43.70;;;;;;4888905;29;20445;-96
2022/09/04 01:56:44;;;;;;;2.13;1.67;;;24.20;43.80;;;;;;4887888;29;20534;-96
2022/09/04 01:59:25;;;;;;;1.93;1.83;;;24.20;43.80;;;;;;4885628;29;20453;-96
2022/09/04 02:01:58;;;;;;;1.77;1.67;;;24.10;43.70;;;;;;4905891;29;20470;-95
2022/09/04 02:04:31;;;;;;;2.30;2.20;;;24.20;43.90;;;;;;4896370;29;20592;-96
2022/09/04 02:07:08;;;;;;;1.60;1.50;;;24.20;43.90;;;;;;4885306;29;20455;-96
2022/09/04 02:09:44;;;;;;;2.00;1.90;;;24.20;43.80;;;;;;4912177;29;20473;-96
2022/09/04 02:12:26;;;;;;;1.90;1.67;;;24.20;43.90;;;;;;4900999;29;20446;-96
2022/09/04 02:15:04;;;;;;;1.50;1.40;;;24.10;43.70;;;;;;4891189;29;20471;-96
2022/09/04 02:17:42;;;;;;;2.90;1.60;;;24.10;43.70;;;;;;4892220;29;20456;-96
2022/09/04 02:20:21;;;;;;;1.80;1.70;;;24.10;43.70;;;;;;4883180;29;20470;-95
2022/09/04 02:22:59;;;;;;;1.50;1.40;;;24.10;43.70;;;;;;4901874;29;21020;-96
2022/09/04 02:25:31;;;;;;;1.93;1.83;;;24.10;43.70;;;;;;4891156;29;20470;-96
2022/09/04 02:28:12;;;;;;;1.60;1.50;;;24.10;43.70;;;;;;4900853;29;20449;-95
2022/09/04 02:30:48;;;;;;;1.67;1.57;;;24.10;43.80;;;;;;4891629;29;20494;-95
2022/09/04 02:33:29;;;;;;;2.00;1.80;;;24.10;43.80;;;;;;4880608;29;20447;-95
2022/09/04 02:36:04;;;;;;;1.90;1.80;;;24.10;43.70;;;;;;4886644;29;20510;-96
2022/09/04 02:38:40;;;;;;;2.17;1.80;;;24.10;43.80;;;;;;4881274;29;20438;-96
2022/09/04 02:41:18;;;;;;;1.80;1.70;;;24.10;43.70;;;;;;4878293;29;20492;-95
2022/09/04 02:44:02;;;;;;;1.60;1.50;;;24.10;43.80;;;;;;4884472;29;20478;-95
2022/09/04 02:46:35;;;;;;;1.80;1.70;;;24.10;43.70;;;;;;4876904;29;20478;-95
2022/09/04 02:49:14;;;;;;;1.80;1.70;;;24.10;43.80;;;;;;4883881;29;20446;-95
2022/09/04 02:51:54;;;;;;;1.50;1.40;;;24.10;45.10;;;;;;4891130;29;20482;-95
2022/09/04 02:54:38;;;;;;;1.40;1.30;;;24.10;43.80;;;;;;4889015;29;20498;-95
2022/09/04 02:57:19;;;;;;;1.60;1.50;;;24.10;43.70;;;;;;4887592;29;20466;-95
2022/09/04 02:59:57;;;;;;;1.60;1.40;;;24.10;43.80;;;;;;4889496;29;20445;-96
2022/09/04 03:02:31;;;;;;;1.77;1.67;;;24.10;43.70;;;;;;4878149;29;21053;-96
2022/09/04 03:05:04;;;;;;;1.90;1.80;;;24.00;43.70;;;;;;4897214;29;20474;-95
2022/09/04 03:07:36;;;;;;;2.00;1.90;;;24.00;43.60;;;;;;4886895;29;20438;-96
2022/09/04 03:10:11;;;;;;;1.53;1.43;;;24.00;43.50;;;;;;4882879;29;20525;-96
2022/09/04 03:12:47;;;;;;;2.00;1.80;;;24.00;43.70;;;;;;4880154;29;20443;-96
2022/09/04 03:15:26;;;;;;;2.93;1.83;;;24.00;43.60;;;;;;4877460;29;20994;-96
2022/09/04 03:18:02;;;;;;;1.40;1.30;;;24.00;43.60;;;;;;4891742;29;20443;-95
2022/09/04 03:20:36;;;;;;;1.53;1.43;;;24.00;43.60;;;;;;4892134;29;20474;-96
2022/09/04 03:23:14;;;;;;;1.13;1.03;;;24.00;43.60;;;;;;4875623;29;20449;-96
2022/09/04 03:25:56;;;;;;;1.60;1.50;;;24.00;43.70;;;;;;4887119;29;21013;-96
2022/09/04 03:28:32;;;;;;;1.60;1.50;;;24.00;43.60;;;;;;4886601;29;20434;-95
2022/09/04 03:31:13;;;;;;;1.90;1.50;;;24.00;43.70;;;;;;4906448;29;20485;-95
2022/09/04 03:33:50;;;;;;;2.03;1.80;;;24.00;43.70;;;;;;4880406;29;20458;-95
2022/09/04 03:36:25;;;;;;;1.80;1.67;;;23.90;43.70;;;;;;4897350;29;20494;-96
2022/09/04 03:39:03;;;;;;;1.37;1.27;;;23.90;43.70;;;;;;4873922;29;20931;-96
2022/09/04 03:41:41;;;;;;;2.00;1.23;;;23.90;43.70;;;;;;4900835;29;20489;-96
2022/09/04 03:44:21;;;;;;;1.50;1.40;;;23.90;43.70;;;;;;4884982;29;20474;-96
2022/09/04 03:47:01;;;;;;;1.63;1.53;;;23.90;43.60;;;;;;4903599;29;20473;-95
2022/09/04 03:49:43;;;;;;;1.73;1.63;;;23.90;43.70;;;;;;4893785;29;20451;-96
2022/09/04 03:52:20;;;;;;;2.40;1.70;;;23.90;43.70;;;;;;4899757;29;20476;-96
2022/09/04 03:55:19;;;;;;;1.67;1.57;;;23.90;43.70;;;;;;4889159;29;20947;-96
2022/09/04 03:58:03;;;;;;;3.90;1.83;;;23.90;43.60;;;;;;4890951;29;20443;-95
2022/09/04 04:00:41;;;;;;;1.67;1.57;;;23.90;43.70;;;;;;4885942;29;20477;-95
2022/09/04 04:03:33;;;;;;;1.63;1.53;;;23.90;43.70;;;;;;4890987;29;20439;-95
2022/09/04 04:06:15;;;;;;;1.20;1.10;;;23.90;43.70;;;;;;4897622;29;20998;-95
2022/09/04 04:09:25;;;;;;;1.40;1.30;;;23.90;43.70;;;;;;4890556;29;20443;-95
2022/09/04 04:12:13;;;;;;;1.67;1.57;;;23.90;43.70;;;;;;4921927;23;20544;-72
2022/09/04 04:14:57;;;;;;;1.83;1.53;;;23.90;43.80;;;;;;4911138;29;20508;-72
2022/09/04 04:17:54;;;;;;;1.60;1.43;;;23.90;43.80;;;;;;4906516;29;20445;-72
2022/09/04 04:20:33;;;;;;;1.60;1.50;;;23.90;44.00;;;;;;4898499;29;20842;-72
2022/09/04 04:23:29;;;;;;;1.50;1.40;;;23.90;43.90;;;;;;4898032;29;20448;-72
2022/09/04 04:26:07;;;;;;;1.60;1.50;;;23.90;43.80;;;;;;4897089;29;20490;-72
2022/09/04 04:29:00;;;;;;;1.50;1.40;;;23.80;43.70;;;;;;4898613;29;20441;-72
2022/09/04 04:31:44;;;;;;;1.40;1.30;;;23.80;43.70;;;;;;4900980;29;20477;-72
2022/09/04 04:34:20;;;;;;;1.37;1.27;;;23.80;43.90;;;;;;4895597;29;20472;-72
2022/09/04 04:36:56;;;;;;;2.07;1.80;;;23.80;43.90;;;;;;4911945;29;20477;-72
2022/09/04 04:39:35;;;;;;;1.90;1.80;;;23.80;43.90;;;;;;4896514;29;20476;-72
2022/09/04 04:42:16;;;;;;;1.50;1.40;;;23.80;43.80;;;;;;4911246;29;20464;-71
2022/09/04 04:48:15;;;;;;;2.13;1.93;;;23.80;43.90;;;;;;4899164;29;20464;-72
2022/09/04 04:50:53;;;;;;;1.37;1.27;;;23.80;43.80;;;;;;4917626;29;20473;-72
2022/09/04 04:53:30;;;;;;;1.27;1.17;;;23.80;43.90;;;;;;4894732;29;20461;-72
2022/09/04 04:56:06;;;;;;;1.20;1.10;;;23.80;43.90;;;;;;4877084;29;20532;-72
2022/09/04 04:58:56;;;;;;;4.93;1.40;;;23.80;43.90;;;;;;4908313;29;21146;-72
2022/09/04 05:01:35;;;;;;;1.87;1.43;;;23.80;43.80;;;;;;4905919;29;20497;-72
2022/09/04 05:04:13;;;;;;;2.10;1.43;;;23.80;43.90;;;;;;4904959;29;21026;-72
2022/09/04 05:06:49;;;;;;;1.50;1.37;;;23.70;43.80;;;;;;4913829;29;21000;-72
2022/09/04 05:09:28;;;;;;;1.33;1.00;;;23.70;43.90;;;;;;4900730;29;20504;-72
2022/09/04 05:12:03;;;;;;;1.50;1.40;;;23.70;43.80;;;;;;4909597;29;20510;-72
2022/09/04 05:14:44;;;;;;;1.40;1.30;;;23.70;43.90;;;;;;4900250;29;20464;-72
2022/09/04 05:17:22;;;;;;;1.40;1.30;;;23.70;43.80;;;;;;4913932;29;20461;-72
2022/09/04 05:19:59;;;;;;;1.27;1.17;;;23.70;43.80;;;;;;4900397;29;20457;-72
2022/09/04 05:22:35;;;;;;;1.63;1.53;;;23.70;43.70;;;;;;4914867;29;20455;-72
2022/09/04 05:25:10;;;;;;;1.70;1.60;;;23.70;43.80;;;;;;4900781;29;20736;-72
2022/09/04 05:28:03;;;;;;;2.13;1.53;;;23.70;43.90;;;;;;4897265;29;20436;-72
2022/09/04 05:30:39;;;;;;;1.50;1.00;;;23.70;43.80;;;;;;4895197;29;20438;-72
2022/09/04 05:33:17;;;;;;;1.40;1.30;;;23.70;43.80;;;;;;4909230;29;20956;-72
2022/09/04 05:35:50;;;;;;;1.53;1.43;;;23.70;43.80;;;;;;4925686;29;20473;-72
2022/09/04 05:38:27;;;;;;;1.30;1.20;;;23.60;43.70;;;;;;4899654;29;20539;-72
2022/09/04 05:41:04;;;;;;;1.53;1.43;;;23.70;43.80;;;;;;4904058;29;20535;-72
2022/09/04 05:43:55;;;;;;;1.80;1.70;;;23.70;43.90;;;;;;4897096;29;20469;-72
2022/09/04 05:46:34;;;;;;;1.67;1.57;;;23.60;43.80;;;;;;4914848;29;20477;-72
2022/09/04 05:49:13;;;;;;;2.70;1.40;;;23.60;43.80;;;;;;4900564;29;20461;-72
2022/09/04 05:52:01;;;;;;;1.63;1.20;;;23.60;43.70;;;;;;4894036;29;20833;-72
2022/09/04 05:55:21;;;;;;;1.57;1.30;;;23.60;43.80;;;;;;4920730;29;20488;-72
2022/09/04 05:58:00;;;;;;;1.27;1.17;;;23.60;43.80;;;;;;4846407;29;20472;-72
2022/09/04 06:00:41;;;;;;;2.77;1.70;;;23.60;45.10;;;;;;4828658;29;20453;-71
2022/09/04 06:03:42;;;;;;;1.27;1.10;;;23.60;43.80;;;;;;4884274;29;20461;-73
2022/09/04 06:06:20;;;;;;;1.00;0.90;;;23.60;43.70;;;;;;4911613;29;20483;-72
2022/09/04 06:09:06;;;;;;;1.70;1.60;;;23.60;43.70;;;;;;4912193;29;20860;-72
2022/09/04 06:11:48;;;;;;;1.40;1.30;;;23.60;43.70;;;;;;4908852;29;20477;-72
2022/09/04 06:14:35;;;;;;;1.40;1.30;;;23.60;43.80;;;;;;4901253;29;20460;-72
2022/09/04 06:17:26;;;;;;;2.20;1.30;;;23.60;43.80;;;;;;4899256;29;20449;-72
2022/09/04 06:20:22;;;;;;;1.97;1.70;;;23.60;45.00;;;;;;4904567;29;20450;-72
2022/09/04 06:23:09;;;;;;;2.40;1.27;;;23.60;43.90;;;;;;4895192;29;20434;-72
2022/09/04 06:25:58;;;;;;;1.30;1.20;;;23.60;43.80;;;;;;4895210;29;20540;-72
2022/09/04 06:28:48;;;;;;;1.53;1.43;;;23.60;44.00;;;;;;4900169;29;20453;-72
2022/09/04 06:31:47;;;;;;;2.27;1.40;;;23.60;43.90;;;;;;4902294;29;20493;-72
2022/09/04 06:34:29;;;;;;;1.77;1.67;;;23.50;43.90;;;;;;4907803;29;20476;-71
2022/09/04 06:37:10;;;;;;;1.23;0.90;;;23.60;44.00;;;;;;4905618;29;20842;-71
2022/09/04 06:39:51;;;;;;;1.63;1.53;;;23.50;43.90;;;;;;4920216;29;20440;-71
2022/09/04 06:42:34;;;;;;;1.43;1.33;;;23.50;44.60;;;;;;4897021;29;20569;-72
2022/09/04 06:45:17;;;;;;;2.77;1.67;;;23.50;44.10;;;;;;4913798;29;20468;-72
2022/09/04 06:47:59;;;;;;;1.53;1.20;;;23.50;44.40;;;;;;4916673;29;20834;-72
2022/09/04 06:50:37;;;;;;;2.20;1.20;;;23.50;44.00;;;;;;4903380;29;20473;-72
2022/09/04 06:53:18;;;;;;;1.50;1.30;;;23.50;44.00;;;;;;4887984;29;20449;-72
2022/09/04 06:55:57;;;;;;;1.53;1.43;;;23.50;43.90;;;;;;4899756;29;20473;-72
2022/09/04 06:58:53;;;;;;;1.50;1.40;;;23.50;44.00;;;;;;4897136;29;20466;-71
2022/09/04 07:01:39;;;;;;;2.23;1.70;;;23.50;44.00;;;;;;4909010;29;20480;-72
2022/09/04 07:04:20;;;;;;;1.30;1.17;;;23.50;44.10;;;;;;4895312;29;21048;-72
2022/09/04 07:06:58;;;;;;;2.30;1.87;;;23.50;44.10;;;;;;4903537;29;20557;-71
2022/09/04 07:09:32;;;;;;;1.20;1.10;;;23.50;44.50;;;;;;4927074;29;20460;-72
2022/09/04 07:12:37;;;;;;;1.30;1.20;;;23.50;44.40;;;;;;4918479;29;20541;-72
2022/09/04 07:15:34;;;;;;;1.40;1.30;;;23.50;44.80;;;;;;4911244;29;21001;-71
2022/09/04 07:18:12;;;;;;;2.13;1.40;;;23.50;44.80;;;;;;4907575;29;20956;-72
2022/09/04 07:20:46;;;;;;;1.40;1.30;;;23.50;44.90;;;;;;4915192;29;20461;-72
2022/09/04 07:23:34;;;;;;;1.73;1.50;;;23.50;45.00;;;;;;4895245;29;20464;-71
2022/09/04 07:26:12;;;;;;;1.87;1.63;;;23.50;45.00;;;;;;4901623;29;20473;-72
2022/09/04 07:29:05;;;;;;;1.90;1.43;;;23.50;45.00;;;;;;4904448;29;20434;-72
2022/09/04 07:31:43;;;;;;;1.50;1.40;;;23.50;45.10;;;;;;4881152;29;20477;-72
2022/09/04 07:34:21;;;;;;;1.30;1.20;;;23.50;45.00;;;;;;4897909;29;20551;-72
2022/09/04 07:36:56;;;;;;;2.27;1.33;;;23.50;45.00;;;;;;4898059;29;20522;-72
2022/09/04 07:39:36;;;;;;;1.77;1.10;;;23.50;45.10;;;;;;4892055;29;20461;-72
2022/09/04 07:42:11;;;;;;;2.03;1.83;;;23.50;44.90;;;;;;4902746;29;20479;-72
2022/09/04 07:44:48;;;;;;;1.70;1.60;;;23.50;45.00;;;;;;4895155;29;20529;-72
2022/09/04 07:47:21;;;;;;;1.63;1.50;;;23.50;44.80;;;;;;4902554;29;21019;-72
2022/09/04 07:50:00;;;;;;;1.57;1.47;;;23.50;44.90;;;;;;4907213;29;20779;-72
2022/09/04 07:52:49;;;;;;;2.70;1.50;;;23.50;44.80;;;;;;4894849;29;20973;-72
2022/09/04 07:55:30;;;;;;;1.37;1.27;;;23.50;44.90;;;;;;4902848;29;20484;-72
2022/09/04 07:58:30;;;;;;;1.73;1.27;;;23.50;44.90;;;;;;4903367;29;20917;-72
2022/09/04 08:01:18;;;;;;;2.50;1.23;;;23.50;44.80;;;;;;4903262;29;20469;-71
2022/09/04 08:04:07;;;;;;;1.50;1.30;;;23.60;45.00;;;;;;4910846;29;20534;-72
2022/09/04 08:06:43;;;;;;;1.63;1.40;;;23.50;45.10;;;;;;4917353;29;20888;-72
2022/09/04 08:09:36;;;;;;;1.50;1.40;;;23.50;45.10;;;;;;4888652;29;20650;-73
2022/09/04 08:12:36;;;;;;;1.70;1.60;;;23.50;45.10;;;;;;4885515;29;20465;-72
2022/09/04 08:15:16;;;;;;;1.20;1.10;;;23.50;45.20;;;;;;4901723;29;20548;-72
2022/09/04 08:18:15;;;;;;;1.30;1.20;;;23.50;45.00;;;;;;4911111;29;20441;-72
2022/09/04 08:20:51;;;;;;;1.53;1.43;;;23.50;45.00;;;;;;4910994;29;20603;-71
2022/09/04 08:24:05;;;;;;;1.50;1.27;;;23.50;45.10;;;;;;4894721;29;20989;-72
2022/09/04 08:26:44;;;;;;;2.63;1.40;;;23.50;44.80;;;;;;4863518;29;20850;-72
2022/09/04 08:29:32;;;;;;;1.30;1.20;;;23.50;44.80;;;;;;4902460;29;20453;-72
2022/09/04 08:32:14;;;;;;;1.47;1.37;;;23.50;44.90;;;;;;4903261;29;20536;-72
2022/09/04 08:35:05;;;;;;;1.80;1.70;;;23.50;45.00;;;;;;4893299;29;21015;-73
2022/09/04 08:37:48;;;;;;;1.30;1.20;;;23.50;45.10;;;;;;4896978;29;20461;-72
2022/09/04 08:40:42;;;;;;;1.23;1.13;;;23.50;45.20;;;;;;4898579;29;20543;-72
2022/09/04 08:43:38;;;;;;;1.50;1.40;;;23.50;45.10;;;;;;4904442;29;20949;-72
2022/09/04 08:46:52;;;;;;;1.50;1.40;;;23.50;45.10;;;;;;4907374;29;20476;-72
2022/09/04 08:49:52;;;;;;;1.53;1.40;;;23.50;45.10;;;;;;4914897;29;20444;-72
2022/09/04 08:52:56;;;;;;;1.10;1.00;;;23.50;45.10;;;;;;4905892;29;20453;-72
2022/09/04 08:55:46;;;;;;;1.23;1.13;;;23.50;45.00;;;;;;4906657;29;20492;-72
2022/09/04 08:58:50;;;;;;;1.00;0.97;;;23.50;45.00;;;;;;4878330;29;20449;-72
2022/09/04 09:02:10;;;;;;;1.37;1.27;;;23.50;46.20;;;;;;4903269;29;20876;-72
2022/09/04 09:05:22;;;;;;;2.00;1.23;;;23.50;44.90;;;;;;4821140;29;20478;-72
2022/09/04 09:08:24;;;;;;;1.10;1.00;;;23.50;45.00;;;;;;4810400;29;20518;-71
2022/09/04 09:11:43;;;;;;;1.40;1.30;;;23.50;45.10;;;;;;4923149;29;20453;-72
2022/09/04 09:14:51;;;;;;;1.30;1.20;;;23.50;45.50;;;;;;4908361;29;20460;-72
2022/09/04 09:17:33;;;;;;;1.17;1.10;;;23.50;45.40;;;;;;4875231;29;20485;-72
2022/09/04 09:20:24;;;;;;;1.67;1.57;;;23.50;45.60;;;;;;4905806;29;20457;-72
2022/09/04 09:23:18;;;;;;;1.90;1.43;;;23.50;45.50;;;;;;4895072;29;20728;-72
2022/09/04 09:26:05;;;;;;;1.57;1.33;;;23.50;45.50;;;;;;4903331;29;20491;-72
2022/09/04 09:29:20;;;;;;;1.70;1.10;;;23.50;45.50;;;;;;4906770;29;20882;-72
2022/09/04 09:32:29;;;;;;;1.20;1.10;;;23.50;45.60;;;;;;4905022;29;20479;-72
2022/09/04 09:35:30;;;;;;;1.53;1.43;;;23.50;45.70;;;;;;4899085;29;20473;-72
2022/09/04 09:38:48;;;;;;;1.27;1.17;;;23.50;45.70;;;;;;4895919;29;20983;-71
2022/09/04 09:41:46;;;;;;;1.30;1.20;;;23.50;45.70;;;;;;4907481;29;20993;-71
2022/09/04 09:44:51;;;;;;;1.50;1.40;;;23.50;45.90;;;;;;4921793;29;21056;-72
2022/09/04 09:48:13;;;;;;;1.23;1.13;;;23.50;45.60;;;;;;4891511;29;20548;-71
2022/09/04 09:51:33;;;;;;;1.27;1.17;;;23.50;45.70;;;;;;4907163;29;20477;-72
2022/09/04 09:54:39;;;;;;;1.63;1.53;;;23.50;45.70;;;;;;4897235;29;20549;-71
2022/09/04 09:57:50;;;;;;;1.47;1.37;;;23.50;45.60;;;;;;4889718;29;20469;-72
2022/09/04 10:00:21;;;;;;;1.70;1.50;;;23.50;45.70;;;;;;4899139;29;20501;-72
2022/09/04 10:03:27;;;;;;;3.17;1.30;;;23.50;45.60;;;;;;4898624;29;20528;-72
2022/09/04 10:06:27;;;;;;;1.20;1.10;;;23.50;45.60;;;;;;4901250;29;20461;-71
2022/09/04 10:09:38;;;;;;;1.20;1.10;;;23.50;45.50;;;;;;4904930;29;20469;-71
2022/09/04 10:12:50;;;;;;;1.43;1.30;;;23.60;45.60;;;;;;4944532;23;20494;-68
2022/09/04 10:15:54;;;;;;;1.20;1.10;;;23.50;45.60;;;;;;4927926;29;20985;-69
2022/09/04 10:18:55;;;;;;;2.57;1.73;;;23.50;45.60;;;;;;4937019;29;21006;-69
2022/09/04 10:22:21;;;;;;;1.53;1.43;;;23.50;45.70;;;;;;4933107;29;20483;-69
2022/09/04 10:25:29;;;;;;;1.50;1.40;;;23.50;45.70;;;;;;4932066;29;20935;-69
2022/09/04 10:28:58;;;;;;;1.53;1.40;;;23.50;45.90;;;;;;4925602;29;20475;-70
2022/09/04 10:31:47;;;;;;;1.77;1.50;;;23.50;45.70;;;;;;4933991;29;20482;-70
2022/09/04 10:34:41;;;;;;;1.40;1.30;;;23.50;45.80;;;;;;4933695;29;20476;-69
2022/09/04 10:37:29;;;;;;;1.43;1.23;;;23.50;45.80;;;;;;4935036;29;20451;-70
2022/09/04 10:43:14;;;;;;;1.20;1.10;;;23.50;45.70;;;;;;4951663;29;20807;-70
2022/09/04 10:45:46;;;;;;;1.47;1.37;;;23.50;45.90;;;;;;4929236;29;20491;-70
2022/09/04 10:48:57;;;;;;;1.23;1.13;;;23.50;45.80;;;;;;4933838;29;20477;-69
2022/09/04 10:52:05;;;;;;;1.57;1.47;;;23.50;45.80;;;;;;4932837;28;20467;-69
2022/09/04 10:54:53;;;;;;;1.97;1.30;;;23.50;45.90;;;;;;4935894;29;20510;-69
2022/09/04 10:57:41;;;;;;;1.97;1.50;;;23.50;45.90;;;;;;4941039;29;20915;-70
2022/09/04 11:00:12;;;;;;;1.87;1.40;;;23.50;45.80;;;;;;4945990;29;20436;-70
2022/09/04 11:03:15;;;;;;;1.60;1.50;;;23.50;45.80;;;;;;4943350;29;20424;-70
2022/09/04 11:06:25;;;;;;;1.20;1.10;;;23.50;45.80;;;;;;4929163;29;20972;-70
2022/09/04 11:09:07;;;;;;;1.90;1.20;;;23.50;45.90;;;;;;4936682;29;20478;-69
2022/09/04 11:12:08;;;;;;;5.33;1.87;;;23.50;45.80;;;;;;4940749;28;20886;-70
2022/09/04 11:15:22;;;;;;;1.40;1.27;;;23.50;45.80;;;;;;4941658;29;20504;-69
2022/09/04 11:18:21;;;;;;;1.17;1.07;;;23.50;45.80;;;;;;4907806;29;20468;-70
2022/09/04 11:21:35;;;;;;;1.50;1.40;;;23.50;45.80;;;;;;4945360;29;20460;-69
2022/09/04 11:24:41;;;;;;;1.57;1.47;;;23.50;45.90;;;;;;4940967;29;20455;-69
2022/09/04 11:27:38;;;;;;;1.40;1.30;;;23.50;45.80;;;;;;4934054;29;20878;-69
2022/09/04 11:30:14;;;;;;;1.20;1.10;;;23.50;45.70;;;;;;4930748;29;20950;-69
2022/09/04 11:33:15;;;;;;;1.93;1.73;;;23.50;45.70;;;;;;4933927;29;20585;-69
2022/09/04 11:36:18;;;;;;;1.20;1.10;;;23.50;45.60;;;;;;4929145;29;20463;-70
2022/09/04 11:39:22;;;;;;;2.33;1.13;;;23.50;45.60;;;;;;4935346;29;20443;-70
2022/09/04 11:42:32;;;;;;;1.40;1.30;;;23.60;45.60;;;;;;4945294;28;20555;-69
2022/09/04 11:45:40;;;;;;;1.60;1.30;;;23.60;45.60;;;;;;4867423;29;20485;-69
2022/09/04 11:48:39;;;;;;;1.70;1.23;;;23.60;45.70;;;;;;4849567;29;20439;-69
2022/09/04 11:51:47;;;;;;;1.43;1.23;;;23.60;45.60;;;;;;4928093;29;20876;-69
2022/09/04 11:54:56;;;;;;;1.50;1.40;;;23.60;45.50;;;;;;4928053;29;20543;-70
2022/09/04 11:57:33;;;;;;;2.40;1.70;;;23.60;45.50;;;;;;4927072;29;20470;-70
2022/09/04 12:00:11;;;;;;;1.50;1.40;;;23.60;45.50;;;;;;4933026;29;20444;-68
2022/09/04 12:03:07;;;;;;;1.50;1.40;;;23.60;45.50;;;;;;4945297;29;20438;-70
2022/09/04 12:05:58;;;;;;;1.60;1.50;;;23.60;45.40;;;;;;4930162;29;20472;-69
2022/09/04 12:09:04;;;;;;;1.57;1.33;;;23.60;45.50;;;;;;4943194;29;20451;-69
2022/09/04 12:11:54;;;;;;;1.83;1.30;;;23.60;45.30;;;;;;4939155;28;20476;-69
2022/09/04 12:14:45;;;;;;;1.63;1.43;;;23.60;45.30;;;;;;4937708;29;20524;-69
2022/09/04 12:17:55;;;;;;;1.53;1.43;;;23.60;45.20;;;;;;4932712;29;20467;-69
2022/09/04 12:20:49;;;;;;;1.50;1.40;;;23.60;45.20;;;;;;4930609;29;20451;-70
2022/09/04 12:23:32;;;;;;;1.30;1.20;;;23.60;45.20;;;;;;4942539;29;20468;-69
2022/09/04 12:26:36;;;;;;;1.53;1.43;;;23.70;45.30;;;;;;4933573;29;20467;-70
2022/09/04 12:30:04;;;;;;;1.70;1.57;;;23.70;45.20;;;;;;4942505;29;20915;-70
2022/09/04 12:33:16;;;;;;;1.10;1.00;;;23.70;45.20;;;;;;4944021;29;20888;-70
2022/09/04 12:36:19;;;;;;;1.93;1.43;;;23.70;45.20;;;;;;4943331;29;20521;-70
2022/09/04 12:39:20;;;;;;;1.60;1.50;;;23.70;45.20;;;;;;4948715;29;20423;-69
2022/09/04 12:41:58;;;;;;;1.97;1.87;;;23.70;45.20;;;;;;4946027;29;20505;-69
2022/09/04 12:44:41;;;;;;;1.63;1.40;;;23.60;45.10;;;;;;4949714;29;20458;-69
2022/09/04 12:47:25;;;;;;;1.40;1.30;;;23.70;45.20;;;;;;4932521;29;20455;-69
2022/09/04 12:50:18;;;;;;;1.57;1.47;;;23.70;45.30;;;;;;4938995;29;20494;-69
2022/09/04 12:53:03;;;;;;;1.57;1.47;;;23.70;45.20;;;;;;4940596;29;20439;-69
2022/09/04 12:55:37;;;;;;;1.77;1.60;;;23.70;45.30;;;;;;4944905;29;20483;-69
2022/09/04 12:58:21;;;;;;;1.70;1.60;;;23.70;45.10;;;;;;4932390;29;20474;-69
2022/09/04 13:00:56;;;;;;;1.73;1.63;;;23.70;45.30;;;;;;4932651;29;20486;-69
2022/09/04 13:03:36;;;;;;;1.60;1.50;;;23.70;45.30;;;;;;4930404;29;20833;-69
2022/09/04 13:06:16;;;;;;;1.67;1.50;;;23.70;45.20;;;;;;4951004;28;20455;-69
2022/09/04 13:08:58;;;;;;;1.90;1.80;;;23.70;45.20;;;;;;4936545;29;20431;-69
2022/09/04 13:11:49;;;;;;;1.63;1.53;;;23.70;45.10;;;;;;4930158;29;21016;-69
2022/09/04 13:14:49;;;;;;;1.70;1.60;;;23.70;45.10;;;;;;4929633;28;21294;-69
2022/09/04 13:17:29;;;;;;;1.60;1.50;;;23.80;45.10;;;;;;4946157;29;20875;-69
2022/09/04 13:20:09;;;;;;;2.07;1.87;;;23.80;45.10;;;;;;4930685;29;20809;-69
2022/09/04 13:22:56;;;;;;;1.67;1.57;;;23.80;45.20;;;;;;4935957;28;20435;-69
2022/09/04 13:25:35;;;;;;;2.80;1.60;;;23.80;45.10;;;;;;4918919;29;20471;-69
2022/09/04 13:28:17;;;;;;;3.30;2.00;;;23.80;45.10;;;;;;4933676;29;20939;-69
2022/09/04 13:30:58;;;;;;;2.07;1.90;;;23.80;45.00;;;;;;4938265;28;20546;-70
2022/09/04 13:33:43;;;;;;;1.60;1.50;;;23.80;45.10;;;;;;4934260;29;20546;-69
2022/09/04 13:36:34;;;;;;;1.70;1.60;;;23.80;45.00;;;;;;4946966;28;21162;-69
2022/09/04 13:39:22;;;;;;;1.43;1.33;;;23.80;44.90;;;;;;4934379;28;20511;-69
2022/09/04 13:42:23;;;;;;;1.77;1.67;;;23.80;44.90;;;;;;4932890;29;20479;-69
2022/09/04 13:45:00;;;;;;;2.10;1.93;;;23.80;44.80;;;;;;4920100;29;20468;-69
2022/09/04 13:47:37;;;;;;;1.30;1.20;;;23.80;45.00;;;;;;4934695;29;20451;-69
2022/09/04 13:50:15;;;;;;;2.03;1.83;;;23.80;45.00;;;;;;4934261;28;20991;-69
2022/09/04 13:52:50;;;;;;;1.90;1.80;;;23.80;44.90;;;;;;4943471;28;20446;-69
2022/09/04 13:55:23;;;;;;;2.10;1.90;;;23.80;46.00;;;;;;4928041;29;20998;-69
2022/09/04 13:57:59;;;;;;;1.43;1.33;;;23.80;44.90;;;;;;4931969;29;20450;-69
2022/09/04 14:00:30;;;;;;;1.67;1.57;;;23.90;45.00;;;;;;4937251;29;20439;-69
2022/09/04 14:03:02;;;;;;;2.37;1.60;;;23.90;44.80;;;;;;4948855;28;20443;-69
2022/09/04 14:05:36;;;;;;;1.90;1.80;;;23.90;44.80;;;;;;4947427;29;20447;-69
2022/09/04 14:08:13;;;;;;;1.40;1.30;;;23.90;44.80;;;;;;4911390;28;20534;-69
2022/09/04 14:11:21;;;;;;;1.83;1.73;;;23.90;44.80;;;;;;4939142;28;20470;-69
2022/09/04 14:14:10;;;;;;;1.40;1.30;;;23.90;44.70;;;;;;4940466;29;20467;-69
2022/09/04 14:16:40;;;;;;;1.80;1.70;;;23.90;44.80;;;;;;4938303;29;20475;-69
2022/09/04 14:19:31;;;;;;;1.80;1.60;;;23.90;44.80;;;;;;4928047;29;20448;-69
2022/09/04 14:22:09;;;;;;;2.23;1.40;;;23.90;44.70;;;;;;4942072;28;20470;-69
2022/09/04 14:24:45;;;;;;;1.50;1.40;;;23.90;44.70;;;;;;4926003;29;20467;-69
2022/09/04 14:27:23;;;;;;;2.53;1.47;;;23.90;44.60;;;;;;4918518;29;20853;-69
2022/09/04 14:30:02;;;;;;;2.00;1.67;;;23.90;44.60;;;;;;4937218;28;20467;-69
2022/09/04 14:32:42;;;;;;;2.00;1.90;;;23.90;44.60;;;;;;4917183;29;20495;-69